Stations météo

Publicité
Katesbridge, Grande-Bretagne (99014): Température de l'air & dewpoint: 21.10.2020 17:00:00 - 27.10.2020 17:00:00 (GMT)Katesbridge, Grande-Bretagne (99014): Vitesse du vent & gusts: 21.10.2020 17:00:00 - 27.10.2020 17:00:00 (GMT)Katesbridge, Grande-Bretagne (99014): Direction du vent: 21.10.2020 17:00:00 - 27.10.2020 17:00:00 (GMT)Katesbridge, Grande-Bretagne (99014): Ensoleillement: 21.10.2020 17:00:00 - 27.10.2020 17:00:00 (GMT)Katesbridge, Grande-Bretagne (99014): Quantités de précipitations: 21.10.2020 17:00:00 - 27.10.2020 17:00:00 (GMT)
Date & Time tt [°C] td [°C] ff [km/h] ff [knt] fx [km/h] fx [knt] dd sd [min] rr [mm]
27.10.2020 17:00:00 - - - - - - - - -
27.10.2020 16:00:00 9,0 4,6 11 6 52 28 WSW 36 0,2
27.10.2020 15:00:00 10,7 4,1 21 11 - - W 60 0,0
27.10.2020 14:00:00 10,9 6,0 18 10 - - W 42 0,0
27.10.2020 13:00:00 10,4 7,5 15 8 - - W 0 0,0
27.10.2020 12:00:00 9,7 8,7 11 6 - - WNW 0 0,6
27.10.2020 11:00:00 9,7 8,3 18 10 - - W 0 1,2
27.10.2020 10:00:00 11,2 10,5 16 9 - - SSW 0 0,6
27.10.2020 09:00:00 10,9 10,2 16 9 - - S 0 0,6
27.10.2020 08:00:00 10,0 8,9 9 5 - - SSE 0 0,0
27.10.2020 07:00:00 8,7 7,9 11 6 - - SE 0 0,0
27.10.2020 06:00:00 8,0 6,5 13 7 - - SSE 0 0,0
27.10.2020 05:00:00 7,2 5,6 8 4 - - SSE 0 0,0
27.10.2020 04:00:00 6,5 5,6 8 4 - - S 0 0,0
27.10.2020 03:00:00 5,6 5,1 4 2 - - S 0 0,0
27.10.2020 02:00:00 4,6 4,4 8 4 - - SW 0 0,0
27.10.2020 01:00:00 3,6 2,9 2 1 - - W 0 0,0
27.10.2020 00:00:00 5,2 4,4 2 1 - - S - 0,0
26.10.2020 23:00:00 6,6 5,9 9 5 - - W 0 0,0
26.10.2020 22:00:00 3,9 3,0 4 2 - - SW 0 0,0
26.10.2020 21:00:00 5,3 4,2 4 2 - - SW 0 0,0
26.10.2020 20:00:00 6,8 5,2 9 5 - - W 0 0,0
26.10.2020 19:00:00 8,3 6,0 13 7 - - W 0 0,0
26.10.2020 18:00:00 8,3 5,9 8 4 - - W 0 0,0
26.10.2020 17:00:00 9,0 5,5 11 6 - - WNW 12 0,0
26.10.2020 16:00:00 10,5 5,4 11 6 - - WNW 60 0,0
26.10.2020 15:00:00 11,3 5,0 16 9 - - WNW 60 0,0
26.10.2020 14:00:00 12,0 5,8 16 9 - - WNW 54 0,0
26.10.2020 13:00:00 11,5 6,2 15 8 - - WNW 42 0,0
26.10.2020 12:00:00 11,6 6,7 18 10 46 25 WNW 30 0,0
26.10.2020 11:00:00 10,8 6,8 15 8 - - WNW 30 0,0
26.10.2020 10:00:00 10,1 6,8 13 7 - - WNW 42 0,0
26.10.2020 09:00:00 9,2 6,6 16 9 - - WNW 30 0,0
26.10.2020 08:00:00 8,0 6,0 13 7 - - WNW 0 0,0
26.10.2020 07:00:00 8,3 6,4 16 9 - - W 0 0,0
26.10.2020 06:00:00 8,1 6,3 13 7 - - WNW 0 0,0
26.10.2020 05:00:00 8,2 6,8 13 7 - - WNW 0 0,0
26.10.2020 04:00:00 8,7 7,5 15 8 - - W 0 0,0
26.10.2020 03:00:00 8,5 7,3 13 7 - - W 0 0,2
26.10.2020 02:00:00 8,4 7,0 18 10 - - WSW 0 0,0
26.10.2020 01:00:00 7,9 6,4 18 10 - - SW 0 0,0
26.10.2020 00:00:00 7,7 6,0 18 10 - - SW - 0,0
25.10.2020 23:00:00 7,4 5,7 21 11 - - SW 0 0,0
25.10.2020 22:00:00 7,2 5,6 16 9 - - SW 0 0,0
25.10.2020 21:00:00 7,8 5,6 18 10 - - SW 0 0,0
25.10.2020 20:00:00 8,4 5,9 16 9 - - SW 0 0,0
25.10.2020 19:00:00 8,6 5,9 22 12 - - SW 0 0,0
25.10.2020 18:00:00 8,9 5,5 18 10 - - SW 0 0,0
25.10.2020 17:00:00 8,9 5,2 22 12 54 29 SW 0 0,0
25.10.2020 16:00:00 9,5 5,0 26 14 - - SW 0 0,0
25.10.2020 15:00:00 10,2 5,1 24 13 46 25 SW 6 0,0
25.10.2020 14:00:00 10,4 4,8 21 11 48 26 WSW 24 0,0
25.10.2020 13:00:00 10,7 5,5 22 12 46 25 SW 60 0,0
25.10.2020 12:00:00 10,7 5,3 22 12 - - SW 60 0,0
25.10.2020 11:00:00 9,1 5,4 21 11 - - SW 60 0,0
25.10.2020 10:00:00 8,5 4,8 22 12 - - SW 54 0,0
25.10.2020 09:00:00 7,4 4,7 21 11 - - SW 30 0,0
25.10.2020 08:00:00 6,7 4,4 16 9 - - SW 0 0,0
25.10.2020 07:00:00 6,4 4,1 16 9 - - WSW 0 0,0
25.10.2020 06:00:00 7,1 4,0 22 12 50 27 SW 0 0,0
25.10.2020 05:00:00 7,6 4,3 24 13 50 27 SW 0 0,0
25.10.2020 04:00:00 7,4 4,2 21 11 - - SW 0 0,0
25.10.2020 03:00:00 7,2 4,3 21 11 - - SW 0 0,0
25.10.2020 02:00:00 7,5 3,9 24 13 48 26 SW 0 0,0
25.10.2020 01:00:00 7,6 3,9 26 14 - - SW 0 0,0
25.10.2020 00:00:00 - - - - - - - - -
24.10.2020 23:00:00 7,2 3,7 24 13 - - SW 0 0,0
24.10.2020 22:00:00 7,6 3,5 22 12 - - SSW 0 0,0
24.10.2020 21:00:00 7,4 3,3 15 8 - - SW 0 0,0
24.10.2020 20:00:00 7,4 3,8 11 6 - - SW 0 0,0
24.10.2020 19:00:00 7,6 3,7 16 9 - - SW 0 0,0
24.10.2020 18:00:00 8,0 4,0 11 6 - - SW 0 0,0
24.10.2020 17:00:00 8,9 5,4 11 6 - - SW 24 0,0
24.10.2020 16:00:00 10,3 5,9 16 9 - - SW 12 0,0
24.10.2020 15:00:00 10,0 5,8 18 10 - - SSW 0 0,0
24.10.2020 14:00:00 10,2 5,7 21 11 - - SW 0 0,0
24.10.2020 13:00:00 10,4 5,9 22 12 - - SW 24 0,0
24.10.2020 12:00:00 10,2 6,5 21 11 - - SSW 24 -
24.10.2020 11:00:00 9,4 6,5 16 9 - - SW 0 0,0
24.10.2020 10:00:00 9,0 6,8 16 9 - - SW 0 0,0
24.10.2020 09:00:00 8,7 6,7 15 8 - - SW 0 0,0
24.10.2020 08:00:00 8,6 6,5 15 8 - - SW 0 0,0
24.10.2020 07:00:00 8,4 6,1 9 5 - - WSW 0 0,4
24.10.2020 06:00:00 9,2 6,6 26 14 52 28 WSW 0 2,0
24.10.2020 05:00:00 11,6 10,3 28 15 52 28 SSW 0 0,2
24.10.2020 04:00:00 10,7 9,7 29 16 54 29 SSW 0 1,0
24.10.2020 03:00:00 11,0 8,3 31 17 54 29 S 0 0,0
24.10.2020 02:00:00 10,5 7,7 29 16 55 30 S 0 0,0
24.10.2020 01:00:00 10,0 7,0 29 16 54 29 S 0 0,0
24.10.2020 00:00:00 8,9 6,9 24 13 - - SSW - 0,6
23.10.2020 23:00:00 8,9 5,5 22 12 46 25 S 0 0,0
23.10.2020 22:00:00 8,8 4,5 26 14 - - SSW 0 0,0
23.10.2020 21:00:00 8,6 4,9 16 9 - - S 0 0,0
23.10.2020 20:00:00 7,5 4,0 9 5 - - S 0 0,0
23.10.2020 19:00:00 7,4 4,6 9 5 - - SSW 0 0,0
23.10.2020 18:00:00 6,6 3,9 9 5 - - SSW 0 0,0
23.10.2020 17:00:00 6,8 3,4 4 2 - - SW 6 0,0
23.10.2020 16:00:00 9,4 4,3 5 3 - - WSW 36 0,0
23.10.2020 15:00:00 10,1 4,1 15 8 - - WSW 24 0,0
23.10.2020 14:00:00 10,3 4,4 13 7 - - W 42 0,0
23.10.2020 13:00:00 10,8 5,0 15 8 - - W 54 0,0
23.10.2020 12:00:00 9,8 4,5 15 8 - - W 54 0,0
23.10.2020 11:00:00 9,8 5,0 15 8 - - W 60 0,0
23.10.2020 10:00:00 9,1 5,9 15 8 - - W 60 0,0
23.10.2020 09:00:00 8,2 6,7 13 7 - - W 30 0,0
23.10.2020 08:00:00 7,0 6,4 4 2 - - WNW 0 0,0
23.10.2020 07:00:00 7,5 6,9 4 2 - - W 0 0,0
23.10.2020 06:00:00 8,0 7,4 13 7 - - WSW 0 0,2
23.10.2020 05:00:00 8,3 7,2 13 7 - - SW 0 1,2
23.10.2020 04:00:00 8,0 6,7 18 10 - - SSW 0 1,4
23.10.2020 03:00:00 7,8 5,8 16 9 - - SSW 0 0,2
23.10.2020 02:00:00 7,8 5,1 16 9 - - SSW 0 0,4
23.10.2020 01:00:00 8,2 3,9 13 7 - - S 0 0,0
23.10.2020 00:00:00 8,2 3,5 13 7 - - S - 0,0
22.10.2020 23:00:00 8,1 3,7 13 7 - - SSW 0 0,0
22.10.2020 22:00:00 7,6 4,0 5 3 - - S 0 0,0
22.10.2020 21:00:00 5,5 3,7 5 3 - - SSE 0 0,0
22.10.2020 20:00:00 4,9 4,1 4 2 - - SE 0 0,0
22.10.2020 19:00:00 4,5 3,3 5 3 - - SSE 0 0,0
22.10.2020 18:00:00 5,1 2,1 4 2 - - SW 0 0,0
22.10.2020 17:00:00 8,2 3,8 5 3 - - WSW 18 0,0
22.10.2020 16:00:00 9,4 4,5 5 3 - - WNW 6 0,0
22.10.2020 15:00:00 9,4 5,0 9 5 - - WNW 0 0,0
22.10.2020 14:00:00 9,8 4,4 9 5 - - WNW 6 0,0
22.10.2020 13:00:00 10,1 3,9 13 7 - - WNW 12 0,0
22.10.2020 12:00:00 10,0 4,4 11 6 - - WNW 0 0,0
22.10.2020 11:00:00 9,8 4,9 9 5 - - WNW 12 0,0
22.10.2020 10:00:00 9,3 5,2 11 6 - - WNW 0 0,0
22.10.2020 09:00:00 8,3 5,2 11 6 - - WNW 0 0,0
22.10.2020 08:00:00 7,9 5,4 11 6 - - WNW 0 0,0
22.10.2020 07:00:00 7,7 6,4 11 6 - - WNW 0 0,0
22.10.2020 06:00:00 7,8 6,7 13 7 - - WNW 0 0,0
22.10.2020 05:00:00 7,8 6,7 9 5 - - WNW 0 0,0
22.10.2020 04:00:00 8,0 6,7 13 7 - - WNW 0 0,0
22.10.2020 03:00:00 8,5 6,6 13 7 - - WNW 0 0,0
22.10.2020 02:00:00 8,4 6,5 16 9 - - WNW 0 0,0
22.10.2020 01:00:00 8,5 6,2 15 8 - - WNW 0 0,0
22.10.2020 00:00:00 8,6 6,1 16 9 - - WNW - 0,0
21.10.2020 23:00:00 8,3 6,0 18 10 - - W 0 0,0
21.10.2020 22:00:00 7,9 5,8 15 8 - - W 0 0,0
21.10.2020 21:00:00 8,2 6,0 13 7 - - WNW 0 0,0
21.10.2020 20:00:00 8,4 6,4 13 7 - - WNW 0 0,0
21.10.2020 19:00:00 8,7 6,5 11 6 - - WNW 0 0,0
21.10.2020 18:00:00 8,9 6,2 13 7 - - WNW 0 0,0
21.10.2020 17:00:00 9,6 6,8 13 7 - - WNW 0 0,0

tt = Température de l'air
td = dewpoint
ff = Vitesse du vent
fx = gusts
dd = Direction du vent
sd = Ensoleillement
rr = Quantités de précipitations

stations d'obs. à proximité